Time;durP1;ratioP1;P1;durP2;ratioP2;P2;SDS_P1;SDS_P2;PMS_P1;PMS_P2;Temp;Humidity;BMP_temperature;BMP_pressure;BME280_temperature;BME280_humidity;BME280_pressure;Samples;Min_cycle;Max_cycle;Signal;HPM_P1;HPM_P2
2023/08/11 00:01:33;;;;;;;6.10;3.90;;;;;;;12.95;79.38;101055.02;103837;278;38230;-74
2023/08/11 00:04:10;;;;;;;6.40;4.20;;;;;;;12.89;79.37;101051.73;103720;279;39961;-75
2023/08/11 00:06:46;;;;;;;7.10;4.10;;;;;;;12.86;79.62;101055.02;103868;279;39378;-74
2023/08/11 00:09:20;;;;;;;12.60;4.50;;;;;;;12.82;79.75;101054.09;103534;279;39563;-74
2023/08/11 00:11:55;;;;;;;4.60;3.50;;;;;;;12.79;79.72;101055.09;103771;278;39568;-74
2023/08/11 00:14:31;;;;;;;6.60;3.50;;;;;;;12.73;79.94;101050.91;103812;279;39618;-74
2023/08/11 00:17:06;;;;;;;6.20;3.70;;;;;;;12.70;79.81;101047.19;103885;278;38644;-73
2023/08/11 00:19:44;;;;;;;5.80;3.50;;;;;;;12.68;79.87;101048.31;103811;279;38746;-73
2023/08/11 00:22:20;;;;;;;6.60;3.90;;;;;;;12.64;79.82;101044.79;103872;279;38541;-73
2023/08/11 00:25:00;;;;;;;5.90;4.10;;;;;;;12.58;79.71;101043.94;103807;278;38831;-73
2023/08/11 00:27:36;;;;;;;5.40;3.60;;;;;;;12.49;79.48;101042.69;103858;279;38279;-73
2023/08/11 00:30:15;;;;;;;6.00;3.70;;;;;;;12.42;79.55;101039.27;103848;279;40122;-73
2023/08/11 00:32:53;;;;;;;5.60;3.70;;;;;;;12.38;79.78;101043.25;103754;279;38500;-73
2023/08/11 00:35:29;;;;;;;5.80;3.80;;;;;;;12.39;80.17;101042.13;103723;279;175321;-75
2023/08/11 00:38:05;;;;;;;7.90;4.20;;;;;;;12.42;80.50;101043.64;103884;278;39432;-73
2023/08/11 00:40:39;;;;;;;5.20;3.70;;;;;;;12.38;80.52;101039.92;103765;279;38981;-73
2023/08/11 00:43:14;;;;;;;5.50;3.70;;;;;;;12.34;80.70;101041.81;103737;279;39623;-74
2023/08/11 00:45:59;;;;;;;5.60;4.10;;;;;;;12.34;80.73;101041.09;103735;279;38557;-74
2023/08/11 00:48:35;;;;;;;7.50;4.20;;;;;;;12.34;80.82;101041.63;103688;279;38381;-73
2023/08/11 00:51:13;;;;;;;6.90;4.40;;;;;;;12.34;80.94;101038.65;103840;278;38425;-75
2023/08/11 00:53:48;;;;;;;5.10;3.80;;;;;;;12.34;81.07;101039.02;103833;278;39955;-75
2023/08/11 00:56:22;;;;;;;8.00;4.30;;;;;;;12.33;81.03;101039.04;103834;279;39646;-74
2023/08/11 00:58:56;;;;;;;5.00;4.00;;;;;;;12.32;81.15;101038.02;103805;279;39664;-73
2023/08/11 01:01:30;;;;;;;6.20;4.30;;;;;;;12.27;81.05;101037.83;103828;279;39397;-73
2023/08/11 01:04:07;;;;;;;7.10;3.70;;;;;;;12.21;81.03;101037.35;103819;279;38564;-76
2023/08/11 01:06:48;;;;;;;6.60;4.00;;;;;;;12.19;81.15;101033.40;103837;278;38433;-73
2023/08/11 01:09:39;;;;;;;6.50;4.30;;;;;;;12.20;81.44;101038.80;103815;279;38786;-73
2023/08/11 01:12:17;;;;;;;4.60;3.90;;;;;;;12.18;81.36;101037.27;103881;278;38250;-74
2023/08/11 01:14:55;;;;;;;5.00;3.70;;;;;;;12.11;81.21;101034.00;103804;278;38536;-74
2023/08/11 01:17:29;;;;;;;6.00;4.00;;;;;;;12.06;81.13;101034.71;103858;278;38364;-73
2023/08/11 01:20:09;;;;;;;7.30;3.90;;;;;;;12.02;81.13;101032.41;103817;267;39350;-73
2023/08/11 01:22:47;;;;;;;6.50;4.40;;;;;;;11.97;81.36;101028.54;103851;278;38270;-74
2023/08/11 01:25:21;;;;;;;4.90;3.60;;;;;;;11.94;81.37;101029.52;103862;279;38491;-74
2023/08/11 01:27:59;;;;;;;5.70;3.70;;;;;;;11.87;81.41;101029.55;103831;278;39846;-75
2023/08/11 01:30:36;;;;;;;6.50;3.70;;;;;;;11.84;81.63;101026.68;103665;279;38254;-73
2023/08/11 01:33:11;;;;;;;8.10;3.60;;;;;;;11.85;81.84;101026.66;103856;279;38259;-73
2023/08/11 01:35:46;;;;;;;5.10;3.70;;;;;;;11.86;82.20;101024.35;103838;279;39417;-73
2023/08/11 01:38:21;;;;;;;5.60;3.70;;;;;;;11.88;82.21;101023.60;103836;278;38272;-74
2023/08/11 01:40:56;;;;;;;8.80;4.00;;;;;;;11.84;82.01;101023.17;103848;279;38375;-74
2023/08/11 01:43:31;;;;;;;5.80;4.00;;;;;;;11.82;82.10;101023.77;103763;279;38541;-73
2023/08/11 01:46:07;;;;;;;5.70;3.80;;;;;;;11.82;82.02;101025.17;103933;278;40293;-73
2023/08/11 01:48:42;;;;;;;8.40;4.10;;;;;;;11.81;82.22;101026.27;103685;279;39373;-73
2023/08/11 01:51:17;;;;;;;7.70;4.30;;;;;;;11.79;82.16;101025.25;103837;278;38373;-74
2023/08/11 01:53:51;;;;;;;8.30;3.80;;;;;;;11.75;82.20;101022.23;103707;279;38774;-74
2023/08/11 01:56:29;;;;;;;7.00;4.00;;;;;;;11.71;82.05;101024.48;103831;267;39545;-74
2023/08/11 01:59:03;;;;;;;6.10;3.50;;;;;;;11.67;81.96;101019.54;103775;279;38496;-73
2023/08/11 02:01:40;;;;;;;4.90;3.60;;;;;;;11.65;82.29;101019.93;103836;279;38559;-75
2023/08/11 02:04:14;;;;;;;5.60;4.30;;;;;;;11.66;82.34;101022.73;103833;279;38471;-73
2023/08/11 02:06:52;;;;;;;4.90;3.90;;;;;;;11.60;82.20;101025.35;103737;279;40072;-75
2023/08/11 02:09:31;;;;;;;4.70;3.80;;;;;;;11.51;82.11;101019.34;103798;278;38356;-73
2023/08/11 02:12:10;;;;;;;4.90;4.00;;;;;;;11.46;82.25;101026.30;103858;279;38263;-73
2023/08/11 02:14:45;;;;;;;6.10;4.70;;;;;;;11.45;82.56;101025.47;103835;279;39541;-73
2023/08/11 02:17:25;;;;;;;6.00;3.70;;;;;;;11.46;82.70;101024.21;103826;279;39798;-74
2023/08/11 02:20:13;;;;;;;5.30;3.80;;;;;;;11.44;82.64;101025.14;103810;279;38727;-74
2023/08/11 02:22:51;;;;;;;7.20;3.90;;;;;;;11.40;82.83;101027.54;103862;279;38439;-74
2023/08/11 02:25:27;;;;;;;6.80;4.30;;;;;;;11.39;82.79;101031.77;103829;279;39427;-74
2023/08/11 02:28:04;;;;;;;5.60;4.40;;;;;;;11.36;83.10;101030.45;103852;279;39102;-73
2023/08/11 02:30:38;;;;;;;7.90;4.00;;;;;;;11.33;83.05;101033.54;103801;278;38875;-73
2023/08/11 02:33:12;;;;;;;4.90;4.00;;;;;;;11.32;83.19;101038.95;103792;279;39436;-73
2023/08/11 02:35:50;;;;;;;6.50;4.00;;;;;;;11.32;83.24;101037.06;103859;278;38387;-74
2023/08/11 02:38:24;;;;;;;5.70;4.00;;;;;;;11.31;83.20;101037.25;103836;279;39647;-74
2023/08/11 02:40:58;;;;;;;5.70;3.90;;;;;;;11.29;83.19;101039.77;103816;279;39989;-75
2023/08/11 02:43:36;;;;;;;7.10;4.40;;;;;;;11.27;83.06;101042.77;103751;279;38607;-73
2023/08/11 02:46:13;;;;;;;5.40;4.30;;;;;;;11.24;83.06;101049.67;103854;279;38514;-73
2023/08/11 02:48:46;;;;;;;4.80;4.00;;;;;;;11.21;82.95;101050.46;103791;279;39414;-73
2023/08/11 02:51:21;;;;;;;6.30;4.10;;;;;;;11.14;82.90;101046.66;103839;279;38149;-73
2023/08/11 02:53:55;;;;;;;8.30;4.40;;;;;;;11.10;82.98;101045.56;103800;278;38670;-73
2023/08/11 02:56:32;;;;;;;5.70;4.60;;;;;;;11.05;83.09;101056.52;103824;279;38956;-72
2023/08/11 02:59:06;;;;;;;6.20;5.00;;;;;;;11.06;83.32;101056.86;103806;279;40514;-73
2023/08/11 03:01:41;;;;;;;6.20;4.70;;;;;;;11.06;83.52;101064.34;103833;279;38819;-73
2023/08/11 03:04:15;;;;;;;12.20;4.50;;;;;;;11.04;83.37;101063.20;103819;279;39946;-75
2023/08/11 03:06:52;;;;;;;5.40;4.30;;;;;;;11.00;83.31;101062.95;103849;279;38233;-74
2023/08/11 03:09:26;;;;;;;6.80;4.60;;;;;;;10.98;83.18;101061.11;103811;279;39416;-72
2023/08/11 03:12:03;;;;;;;7.60;4.40;;;;;;;10.95;83.16;101061.70;103825;279;39424;-74
2023/08/11 03:14:37;;;;;;;7.90;4.70;;;;;;;10.90;83.15;101066.77;103806;278;38277;-74
2023/08/11 03:17:13;;;;;;;5.50;4.20;;;;;;;10.87;83.33;101074.35;103720;279;38288;-74
2023/08/11 03:19:50;;;;;;;5.10;4.30;;;;;;;10.86;83.65;101073.85;103830;278;38395;-73
2023/08/11 03:22:24;;;;;;;6.80;4.60;;;;;;;10.86;83.65;101075.58;103874;279;39395;-74
2023/08/11 03:24:58;;;;;;;7.00;4.70;;;;;;;10.85;83.57;101072.29;103845;278;38464;-76
2023/08/11 03:27:34;;;;;;;6.20;4.60;;;;;;;10.83;83.74;101072.69;103828;279;39450;-74
2023/08/11 03:30:13;;;;;;;7.10;4.40;;;;;;;10.83;83.84;101070.95;103847;279;39396;-74
2023/08/11 03:32:48;;;;;;;5.10;4.20;;;;;;;10.83;84.02;101072.88;103843;278;38835;-73
2023/08/11 03:35:25;;;;;;;6.00;4.10;;;;;;;10.82;83.84;101071.67;103798;278;38335;-73
2023/08/11 03:38:01;;;;;;;8.40;4.30;;;;;;;10.82;83.88;101070.98;103732;279;175262;-74
2023/08/11 03:40:37;;;;;;;5.80;4.50;;;;;;;10.84;84.28;101078.25;103824;279;38315;-74
2023/08/11 03:43:13;;;;;;;7.50;4.30;;;;;;;10.88;84.37;101082.00;103355;279;713545;-74
2023/08/11 03:45:50;;;;;;;5.70;3.90;;;;;;;10.89;84.47;101074.65;103564;279;39073;-74
2023/08/11 03:48:25;;;;;;;6.10;4.40;;;;;;;10.91;84.71;101073.89;103844;279;38854;-73
2023/08/11 03:51:03;;;;;;;5.30;4.10;;;;;;;10.94;84.75;101075.02;103824;278;40000;-73
2023/08/11 03:53:42;;;;;;;6.20;4.40;;;;;;;10.97;84.86;101070.38;103820;279;39641;-73
2023/08/11 03:56:16;;;;;;;8.60;4.40;;;;;;;10.99;85.02;101071.39;103862;279;38249;-75
2023/08/11 03:58:50;;;;;;;5.30;3.90;;;;;;;11.09;85.50;101071.44;103782;279;38338;-72
2023/08/11 04:01:24;;;;;;;7.60;4.70;;;;;;;11.41;86.14;101073.10;103832;279;38275;-73
2023/08/11 04:04:00;;;;;;;6.10;3.90;;;;;;;11.77;86.65;101064.67;103706;279;39888;-73
2023/08/11 04:06:36;;;;;;;5.50;4.00;;;;;;;11.96;86.20;101064.26;103792;279;38270;-74
2023/08/11 04:09:10;;;;;;;6.50;4.20;;;;;;;12.06;87.38;101064.27;103823;279;38348;-74
2023/08/11 04:11:50;;;;;;;9.30;4.70;;;;;;;12.20;87.19;101065.90;103845;279;38362;-74
2023/08/11 04:14:26;;;;;;;5.70;4.30;;;;;;;12.30;86.68;101065.02;103807;279;38502;-73
2023/08/11 04:17:02;;;;;;;6.00;4.30;;;;;;;12.33;86.02;101065.65;103860;267;38674;-73
2023/08/11 04:19:39;;;;;;;8.10;4.90;;;;;;;12.33;85.57;101065.48;103709;279;175255;-73
2023/08/11 04:22:15;;;;;;;7.60;4.30;;;;;;;12.36;85.48;101067.27;103830;279;38782;-75
2023/08/11 04:24:54;;;;;;;9.50;5.10;;;;;;;12.44;85.64;101068.58;103855;279;38249;-74
2023/08/11 04:27:29;;;;;;;7.50;5.10;;;;;;;12.54;85.49;101067.02;103756;279;38400;-73
2023/08/11 04:30:05;;;;;;;9.30;5.20;;;;;;;12.63;85.31;101071.08;103673;280;38457;-73
2023/08/11 04:32:39;;;;;;;8.20;4.60;;;;;;;12.69;85.45;101069.63;103834;279;39015;-73
2023/08/11 04:35:14;;;;;;;8.90;5.80;;;;;;;12.76;85.15;101074.97;103838;267;38255;-72
2023/08/11 04:37:48;;;;;;;8.10;4.50;;;;;;;12.83;85.20;101079.46;103861;279;38551;-74
2023/08/11 04:40:23;;;;;;;7.20;4.80;;;;;;;12.92;85.49;101079.84;103820;302;38709;-76
2023/08/11 04:42:57;;;;;;;5.40;4.60;;;;;;;13.03;85.61;101079.77;103864;279;38357;-73
2023/08/11 04:45:31;;;;;;;6.60;5.10;;;;;;;13.15;85.75;101079.33;103832;279;38255;-73
2023/08/11 04:48:07;;;;;;;6.50;5.60;;;;;;;13.25;85.54;101078.47;103851;278;38950;-73
2023/08/11 04:50:42;;;;;;;7.60;5.40;;;;;;;13.36;85.43;101081.36;103814;279;38272;-74
2023/08/11 04:53:20;;;;;;;6.10;5.00;;;;;;;13.52;85.76;101085.67;103809;279;40095;-73
2023/08/11 04:55:59;;;;;;;6.60;4.80;;;;;;;13.91;86.81;101077.81;103703;279;40449;-73
2023/08/11 04:58:35;;;;;;;7.60;5.30;;;;;;;14.85;87.75;101082.08;103853;278;38250;-73
2023/08/11 05:01:09;;;;;;;8.00;5.40;;;;;;;15.99;87.19;101080.28;103831;279;39789;-75
2023/08/11 05:03:43;;;;;;;14.70;6.20;;;;;;;17.21;85.07;101077.66;103837;279;38217;-73
2023/08/11 05:06:18;;;;;;;8.00;5.70;;;;;;;18.16;80.82;101077.69;103872;279;39585;-74
2023/08/11 05:08:52;;;;;;;8.50;5.30;;;;;;;18.63;76.03;101078.80;103704;279;39397;-73
2023/08/11 05:11:27;;;;;;;8.60;5.70;;;;;;;18.73;72.60;101083.86;103866;279;38730;-73
2023/08/11 05:14:01;;;;;;;9.10;6.10;;;;;;;18.50;71.10;101080.44;103807;279;38416;-75
2023/08/11 05:16:38;;;;;;;8.70;5.60;;;;;;;18.21;70.27;101084.80;103859;279;38369;-73
2023/08/11 05:19:13;;;;;;;7.50;5.70;;;;;;;17.99;70.02;101084.48;103791;279;40039;-73
2023/08/11 05:21:47;;;;;;;9.80;6.70;;;;;;;17.85;69.63;101080.88;103840;278;39559;-74
2023/08/11 05:24:22;;;;;;;6.90;5.80;;;;;;;17.71;69.22;101080.21;103837;278;39001;-75
2023/08/11 05:26:57;;;;;;;9.70;6.20;;;;;;;17.56;69.28;101083.39;103808;279;38624;-74
2023/08/11 05:29:31;;;;;;;9.80;5.40;;;;;;;17.49;69.77;101082.17;103710;278;38414;-74
2023/08/11 05:32:08;;;;;;;7.90;5.70;;;;;;;17.50;69.64;101082.30;103716;279;38306;-75
2023/08/11 05:34:42;;;;;;;10.30;6.00;;;;;;;17.62;69.17;101085.14;103826;279;38476;-76
2023/08/11 05:37:17;;;;;;;6.40;5.20;;;;;;;17.88;68.88;101083.70;103842;278;40005;-76
2023/08/11 05:39:51;;;;;;;10.20;5.60;;;;;;;18.03;68.37;101084.09;103860;279;39444;-74
2023/08/11 05:42:32;;;;;;;8.40;5.90;;;;;;;18.56;68.41;101083.27;103855;278;38540;-75
2023/08/11 05:45:08;;;;;;;;;;;;;;;19.32;66.91;101082.28;103821;279;38492;-73
2023/08/11 05:47:43;;;;;;;5.90;5.00;;;;;;;20.16;66.23;101076.88;103731;280;39658;-75
2023/08/11 05:50:18;;;;;;;6.90;4.90;;;;;;;21.26;64.84;101076.16;103818;279;39784;-74
2023/08/11 05:52:54;;;;;;;7.70;5.20;;;;;;;22.44;62.27;101077.77;103860;279;38246;-74
2023/08/11 05:55:34;;;;;;;9.80;6.00;;;;;;;23.49;58.12;101079.65;103786;278;39769;-74
2023/08/11 05:58:09;;;;;;;9.20;5.50;;;;;;;24.33;54.73;101077.22;103843;279;38791;-74
2023/08/11 06:00:43;;;;;;;8.80;5.10;;;;;;;24.95;50.74;101078.69;103843;278;38697;-73
2023/08/11 06:03:29;;;;;;;9.30;5.60;;;;;;;25.68;50.61;101074.55;103586;278;39892;-75
2023/08/11 06:06:06;;;;;;;7.90;4.90;;;;;;;26.45;48.26;101076.92;103843;279;38278;-75
2023/08/11 06:08:42;;;;;;;8.30;4.90;;;;;;;27.24;46.13;101075.61;103826;279;38959;-74
2023/08/11 06:11:16;;;;;;;7.30;5.00;;;;;;;28.02;44.31;101074.40;103862;278;39748;-74
2023/08/11 06:13:51;;;;;;;7.40;4.10;;;;;;;28.76;42.60;101074.44;103788;279;39532;-74
2023/08/11 06:16:25;;;;;;;4.40;3.50;;;;;;;29.39;40.94;101075.16;103858;278;38263;-75
2023/08/11 06:18:59;;;;;;;6.30;4.00;;;;;;;29.64;38.70;101080.95;103841;278;39086;-75
2023/08/11 06:21:35;;;;;;;8.30;3.90;;;;;;;29.92;38.01;101077.11;103735;280;39057;-76
2023/08/11 06:24:15;;;;;;;7.30;4.20;;;;;;;30.29;36.80;101077.64;103731;279;174266;-75
2023/08/11 06:26:49;;;;;;;;;;;;;;;30.74;36.01;101078.23;103839;267;40035;-74
2023/08/11 06:29:24;;;;;;;4.10;3.60;;;;;;;31.20;34.67;101077.03;103813;279;39901;-74
2023/08/11 06:32:06;;;;;;;5.70;3.30;;;;;;;31.69;34.35;101078.84;103866;279;39576;-75
2023/08/11 06:34:41;;;;;;;7.90;3.10;;;;;;;31.79;33.05;101081.66;103830;279;39467;-76
2023/08/11 06:37:16;;;;;;;4.00;3.50;;;;;;;32.05;32.06;101086.60;103836;279;38258;-76
2023/08/11 06:39:54;;;;;;;4.10;2.60;;;;;;;31.97;32.13;101089.86;103833;278;40015;-75
2023/08/11 06:42:29;;;;;;;4.80;2.60;;;;;;;31.70;31.62;101087.30;103878;278;39440;-75
2023/08/11 06:45:06;;;;;;;4.50;2.40;;;;;;;31.43;31.68;101090.71;103729;278;174119;-71
2023/08/11 06:47:44;;;;;;;6.40;2.60;;;;;;;31.45;31.05;101091.45;103849;275;38327;-72
2023/08/11 06:50:21;;;;;;;6.60;2.70;;;;;;;31.62;30.46;101087.87;103673;280;39427;-74
2023/08/11 06:52:55;;;;;;;4.20;2.70;;;;;;;31.98;30.04;101089.29;103865;278;38481;-74
2023/08/11 06:55:30;;;;;;;4.90;2.20;;;;;;;32.14;29.38;101090.25;103800;279;38725;-74
2023/08/11 06:58:05;;;;;;;2.50;2.20;;;;;;;31.79;28.89;101095.55;103847;279;39732;-75
2023/08/11 07:00:42;;;;;;;5.80;2.50;;;;;;;31.11;29.27;101096.38;103846;279;38626;-75
2023/08/11 07:03:19;;;;;;;4.00;2.30;;;;;;;30.39;29.88;101092.54;103811;278;38677;-74
2023/08/11 07:05:55;;;;;;;5.70;2.10;;;;;;;29.75;30.93;101093.61;103840;279;38795;-75
2023/08/11 07:08:33;;;;;;;4.30;2.30;;;;;;;29.19;31.75;101092.96;103690;280;38279;-75
2023/08/11 07:11:10;;;;;;;3.10;2.20;;;;;;;28.63;32.38;101094.98;103891;279;38306;-73
2023/08/11 07:13:50;;;;;;;6.50;2.50;;;;;;;28.18;33.38;101094.50;103802;279;38606;-76
2023/08/11 07:16:25;;;;;;;6.60;2.30;;;;;;;27.91;33.67;101100.79;103858;279;38454;-75
2023/08/11 07:18:59;;;;;;;4.50;2.20;;;;;;;27.73;34.09;101098.98;103802;279;39463;-75
2023/08/11 07:21:34;;;;;;;3.30;2.40;;;;;;;27.68;34.30;101105.27;103861;279;38803;-75
2023/08/11 07:24:10;;;;;;;3.50;2.10;;;;;;;27.67;34.18;101104.23;103753;267;187602;-75
2023/08/11 07:26:45;;;;;;;3.00;1.80;;;;;;;27.85;34.85;101108.09;103832;279;39184;-75
2023/08/11 07:29:19;;;;;;;3.70;2.00;;;;;;;28.38;34.58;101104.71;103850;279;39362;-75
2023/08/11 07:31:58;;;;;;;3.80;1.90;;;;;;;29.00;33.59;101106.94;103830;279;38389;-75
2023/08/11 07:34:36;;;;;;;2.30;1.80;;;;;;;29.53;32.13;101100.27;103801;279;39482;-75
2023/08/11 07:37:11;;;;;;;4.50;1.80;;;;;;;30.33;31.63;101099.33;103862;279;38702;-77
2023/08/11 07:39:45;;;;;;;2.60;1.80;;;;;;;31.02;30.34;101102.11;103810;279;38413;-77
2023/08/11 07:42:20;;;;;;;4.00;2.10;;;;;;;31.23;29.12;101100.55;103859;279;39913;-76
2023/08/11 07:44:56;;;;;;;3.10;2.10;;;;;;;31.24;29.37;101097.92;103800;278;38341;-75
2023/08/11 07:47:31;;;;;;;3.20;2.00;;;;;;;31.62;29.32;101096.47;103751;279;38229;-76
2023/08/11 07:50:12;;;;;;;2.30;1.80;;;;;;;31.96;28.89;101096.02;103829;278;38561;-76
2023/08/11 07:52:46;;;;;;;4.20;2.10;;;;;;;32.45;28.80;101092.84;103874;279;39929;-76
2023/08/11 07:55:21;;;;;;;2.80;2.10;;;;;;;32.80;28.45;101098.94;103784;279;38410;-76
2023/08/11 07:57:56;;;;;;;2.60;1.80;;;;;;;33.10;27.83;101095.81;103851;278;39418;-76
2023/08/11 08:00:30;;;;;;;3.70;2.10;;;;;;;33.56;27.59;101096.09;103711;279;38261;-76
2023/08/11 08:03:06;;;;;;;3.20;2.10;;;;;;;34.13;26.67;101095.55;103869;278;39387;-76
2023/08/11 08:05:42;;;;;;;2.30;1.60;;;;;;;34.43;25.83;101094.17;103813;279;38246;-76
2023/08/11 08:08:16;;;;;;;3.90;1.90;;;;;;;34.69;26.05;101094.48;103786;279;39829;-76
2023/08/11 08:10:53;;;;;;;2.60;1.80;;;;;;;35.00;25.39;101096.77;103827;279;38240;-76
2023/08/11 08:13:32;;;;;;;3.40;1.80;;;;;;;35.34;24.80;101099.75;103717;279;38533;-76
2023/08/11 08:16:06;;;;;;;3.20;1.80;;;;;;;35.71;24.13;101102.11;103835;278;38239;-76
2023/08/11 08:18:41;;;;;;;3.30;1.80;;;;;;;35.94;23.47;101100.95;103819;279;38260;-76
2023/08/11 08:21:19;;;;;;;4.70;2.00;;;;;;;36.12;23.30;101100.91;103810;279;38348;-76
2023/08/11 08:23:58;;;;;;;3.50;1.70;;;;;;;36.27;22.60;101102.64;103734;279;39646;-76
2023/08/11 08:26:36;;;;;;;4.20;2.00;;;;;;;36.29;22.98;101104.98;103863;278;38968;-76
2023/08/11 08:29:11;;;;;;;4.50;2.10;;;;;;;36.43;22.54;101103.23;103760;278;38477;-76
2023/08/11 08:31:45;;;;;;;2.90;2.20;;;;;;;36.77;22.96;101101.32;103822;279;38265;-76
2023/08/11 08:34:19;;;;;;;2.40;1.90;;;;;;;37.01;22.61;101107.25;103705;279;39672;-76
2023/08/11 08:36:53;;;;;;;2.30;1.90;;;;;;;37.07;22.14;101104.20;103871;279;38287;-76
2023/08/11 08:39:27;;;;;;;2.40;1.70;;;;;;;37.04;22.16;101106.42;103689;279;38259;-76
2023/08/11 08:42:01;;;;;;;2.00;1.70;;;;;;;37.17;21.73;101102.02;103839;279;38158;-77
2023/08/11 08:44:39;;;;;;;3.30;1.70;;;;;;;37.20;21.55;101104.23;103832;279;38566;-77
2023/08/11 08:47:19;;;;;;;3.00;1.60;;;;;;;37.22;22.20;101102.05;103839;279;38500;-77
2023/08/11 08:49:55;;;;;;;2.80;1.70;;;;;;;37.35;21.68;101101.64;103818;279;38291;-77
2023/08/11 08:52:31;;;;;;;2.40;1.40;;;;;;;37.35;20.13;101102.63;103859;279;38394;-77
2023/08/11 08:55:09;;;;;;;1.90;1.40;;;;;;;37.18;21.08;101102.03;103664;280;38484;-77
2023/08/11 08:57:48;;;;;;;2.00;1.50;;;;;;;37.33;20.80;101100.75;103861;278;38278;-77
2023/08/11 09:00:28;;;;;;;4.00;1.50;;;;;;;37.37;20.57;101100.49;103845;267;39727;-77
2023/08/11 09:03:06;;;;;;;5.60;1.60;;;;;;;37.40;20.69;101097.34;103773;278;173866;-77
2023/08/11 09:05:40;;;;;;;3.00;1.60;;;;;;;37.33;20.28;101100.30;103817;278;38267;-77
2023/08/11 09:08:15;;;;;;;4.20;1.60;;;;;;;37.30;20.74;101098.52;103847;278;38515;-77
2023/08/11 09:10:53;;;;;;;2.10;1.40;;;;;;;37.34;20.84;101102.21;103852;279;38225;-77
2023/08/11 09:13:33;;;;;;;1.30;1.20;;;;;;;37.53;19.97;101105.88;103453;278;172802;-77
2023/08/11 09:16:10;;;;;;;1.80;1.20;;;;;;;37.57;20.16;101094.77;103747;279;39834;-77
2023/08/11 09:18:45;;;;;;;3.10;1.60;;;;;;;37.62;20.48;101098.65;103711;279;38537;-77
2023/08/11 09:21:19;;;;;;;2.40;1.30;;;;;;;37.65;20.46;101101.66;103871;278;38703;-76
2023/08/11 09:23:57;;;;;;;1.90;1.30;;;;;;;37.62;20.38;101103.20;103755;279;39958;-76
2023/08/11 09:26:31;;;;;;;3.10;1.50;;;;;;;37.31;19.98;101102.44;103821;279;38737;-76
2023/08/11 09:29:06;;;;;;;2.20;1.50;;;;;;;37.08;20.75;101105.00;103811;279;38739;-76
2023/08/11 09:31:41;;;;;;;2.30;1.80;;;;;;;36.72;20.68;101103.59;103817;279;38246;-76
2023/08/11 09:34:19;;;;;;;2.90;1.70;;;;;;;36.15;20.74;101102.11;103777;279;39008;-76
2023/08/11 09:36:51;;;;;;;;;;;;;;;35.38;21.57;101105.17;103861;279;39125;-76
2023/08/11 09:39:25;;;;;;;2.80;1.50;;;;;;;34.76;22.04;101102.11;103849;278;38890;-76
2023/08/11 09:42:02;;;;;;;4.00;1.60;;;;;;;34.25;22.88;101099.54;103812;279;38265;-76
2023/08/11 09:44:36;;;;;;;3.50;1.50;;;;;;;33.87;23.93;101099.12;103853;278;38897;-76
2023/08/11 09:47:13;;;;;;;2.10;1.50;;;;;;;33.52;23.70;101098.09;103859;279;38368;-76
2023/08/11 09:49:48;;;;;;;3.40;1.70;;;;;;;33.11;25.07;101098.98;103672;279;41274;-76
2023/08/11 09:52:22;;;;;;;2.20;1.60;;;;;;;32.83;25.52;101099.65;103736;279;38367;-76
2023/08/11 09:54:56;;;;;;;2.90;1.50;;;;;;;32.56;25.60;101093.86;103800;279;38970;-76
2023/08/11 09:57:31;;;;;;;2.70;1.70;;;;;;;32.27;26.15;101100.44;103812;279;38416;-76
2023/08/11 10:00:11;;;;;;;4.10;1.70;;;;;;;32.04;26.38;101099.16;103840;279;38796;-76
2023/08/11 10:02:50;;;;;;;4.10;1.60;;;;;;;31.79;25.91;101097.75;103712;281;40340;-76
2023/08/11 10:05:26;;;;;;;2.30;1.70;;;;;;;31.56;27.23;101091.77;103829;279;38750;-75
2023/08/11 10:08:06;;;;;;;6.40;1.90;;;;;;;31.52;27.62;101096.15;103853;278;38676;-75
2023/08/11 10:10:50;;;;;;;3.40;1.50;;;;;;;31.46;27.36;101095.81;103810;268;39473;-75
2023/08/11 10:13:29;;;;;;;3.40;1.40;;;;;;;31.35;27.32;101096.91;103817;279;38620;-75
2023/08/11 10:16:03;;;;;;;1.90;1.30;;;;;;;31.18;27.15;101100.77;103684;280;38287;-75
2023/08/11 10:18:37;;;;;;;2.80;1.60;;;;;;;30.94;26.26;101098.30;103819;278;38947;-75
2023/08/11 10:21:13;;;;;;;3.20;1.40;;;;;;;30.77;27.02;101095.59;103835;278;39562;-75
2023/08/11 10:23:51;;;;;;;2.00;1.30;;;;;;;30.52;26.98;101097.46;103846;278;38582;-75
2023/08/11 10:26:29;;;;;;;3.40;1.40;;;;;;;30.35;27.18;101095.77;103861;278;38271;-75
2023/08/11 10:29:05;;;;;;;2.80;1.10;;;;;;;30.22;27.09;101088.17;103833;279;39400;-75
2023/08/11 10:31:40;;;;;;;2.90;1.20;;;;;;;30.15;27.35;101082.97;103833;278;38415;-75
2023/08/11 10:34:15;;;;;;;3.60;1.30;;;;;;;30.21;27.34;101086.59;103618;279;187549;-75
2023/08/11 10:36:49;;;;;;;2.60;1.20;;;;;;;30.24;27.28;101084.28;103885;279;38709;-75
2023/08/11 10:39:27;;;;;;;1.60;1.20;;;;;;;30.24;27.78;101084.66;103801;279;38393;-75
2023/08/11 10:42:06;;;;;;;2.70;1.50;;;;;;;30.31;27.78;101085.67;103825;279;39631;-75
2023/08/11 10:44:54;;;;;;;2.20;1.20;;;;;;;30.36;27.45;101086.30;103839;279;38908;-75
2023/08/11 10:47:41;;;;;;;2.20;1.40;;;;;;;30.35;26.76;101080.04;103782;279;39681;-75
2023/08/11 10:50:20;;;;;;;1.80;1.30;;;;;;;30.31;27.42;101078.65;103796;279;39415;-75
2023/08/11 10:53:20;;;;;;;2.00;1.20;;;;;;;30.31;27.81;101075.65;103890;279;38275;-75
2023/08/11 10:56:07;;;;;;;2.30;1.20;;;;;;;30.40;28.41;101073.52;103705;279;41008;-75
2023/08/11 10:58:42;;;;;;;2.90;1.20;;;;;;;30.52;28.38;101073.80;103793;278;38351;-75
2023/08/11 11:01:19;;;;;;;1.80;1.00;;;;;;;30.49;27.57;101075.93;103832;279;38314;-75
2023/08/11 11:03:57;;;;;;;3.00;1.20;;;;;;;30.43;27.71;101074.82;103830;279;38765;-75
2023/08/11 11:06:32;;;;;;;;;;;;;;;30.40;27.58;101078.61;103845;279;38505;-75
2023/08/11 11:09:13;;;;;;;1.80;1.20;;;;;;;30.20;27.51;101075.40;103811;279;39881;-74
2023/08/11 11:11:57;;;;;;;2.60;1.40;;;;;;;30.12;27.36;101069.98;103843;279;38364;-74
2023/08/11 11:14:37;;;;;;;1.40;1.00;;;;;;;30.03;27.24;101067.35;103813;278;38267;-74
2023/08/11 11:17:17;;;;;;;2.90;1.30;;;;;;;30.00;27.38;101067.89;103811;279;38387;-75
2023/08/11 11:20:02;;;;;;;1.60;1.20;;;;;;;29.96;27.86;101070.95;103822;279;39356;-75
2023/08/11 11:22:40;;;;;;;1.60;1.20;;;;;;;29.96;27.71;101069.38;103851;279;38236;-75
2023/08/11 11:25:16;;;;;;;1.40;1.20;;;;;;;29.98;28.05;101067.91;103824;279;39292;-75
2023/08/11 11:27:55;;;;;;;4.00;1.80;;;;;;;29.89;27.66;101073.97;103822;279;39251;-76
2023/08/11 11:30:30;;;;;;;1.40;1.00;;;;;;;29.77;27.83;101070.66;103833;278;38770;-76
2023/08/11 11:33:07;;;;;;;3.30;1.30;;;;;;;29.72;27.79;101071.73;103829;279;38641;-75
2023/08/11 11:35:49;;;;;;;2.10;1.30;;;;;;;29.70;27.51;101073.45;103653;278;38931;-75
2023/08/11 11:38:26;;;;;;;2.20;1.20;;;;;;;29.62;27.30;101067.20;103832;279;38831;-74
2023/08/11 11:41:02;;;;;;;1.70;1.10;;;;;;;29.48;26.61;101066.63;103859;279;38330;-74
2023/08/11 11:43:42;;;;;;;2.10;1.20;;;;;;;29.29;26.87;101066.84;103341;279;668818;-75
2023/08/11 11:46:17;;;;;;;2.30;1.30;;;;;;;29.18;26.63;101066.99;103801;279;38880;-75
2023/08/11 11:48:52;;;;;;;2.40;1.10;;;;;;;29.10;26.93;101065.71;103815;278;39559;-75
2023/08/11 11:51:31;;;;;;;2.60;1.80;;;;;;;29.06;27.69;101064.25;103838;278;38346;-75
2023/08/11 11:54:07;;;;;;;1.60;1.10;;;;;;;28.91;27.87;101065.30;103858;279;38765;-75
2023/08/11 11:56:43;;;;;;;2.10;1.20;;;;;;;28.68;27.60;101069.66;103843;278;38704;-75
2023/08/11 11:59:17;;;;;;;3.90;1.60;;;;;;;28.50;27.88;101064.88;103810;279;38672;-74
2023/08/11 12:01:52;;;;;;;3.90;1.40;;;;;;;28.41;28.07;101068.69;103706;279;39781;-74
2023/08/11 12:04:29;;;;;;;2.70;1.30;;;;;;;28.37;28.34;101067.29;103809;279;39451;-74
2023/08/11 12:07:09;;;;;;;2.00;1.40;;;;;;;28.35;28.87;101066.98;103772;279;38249;-74
2023/08/11 12:09:59;;;;;;;2.10;1.20;;;;;;;28.27;28.98;101066.57;103870;278;39919;-74